sensor_id;sensor_type;location;lat;lon;timestamp;P1;durP1;ratioP1;P2;durP2;ratioP2
72939;SDS011;61094;51.154;13.570;2022-12-18T00:00:56;8.57;;;2.63;;
72939;SDS011;61094;51.154;13.570;2022-12-18T00:02:58;12.68;;;5.03;;
72939;SDS011;61094;51.154;13.570;2022-12-18T00:04:59;17.27;;;4.72;;
72939;SDS011;61094;51.154;13.570;2022-12-18T00:07:03;12.93;;;4.88;;
72939;SDS011;61094;51.154;13.570;2022-12-18T00:09:04;5.47;;;1.90;;
72939;SDS011;61094;51.154;13.570;2022-12-18T00:11:07;5.50;;;2.40;;
72939;SDS011;61094;51.154;13.570;2022-12-18T00:13:11;10.50;;;4.45;;
72939;SDS011;61094;51.154;13.570;2022-12-18T00:15:13;11.07;;;3.85;;
72939;SDS011;61094;51.154;13.570;2022-12-18T00:17:15;18.38;;;4.93;;
72939;SDS011;61094;51.154;13.570;2022-12-18T00:19:17;16.77;;;5.63;;
72939;SDS011;61094;51.154;13.570;2022-12-18T00:21:19;26.05;;;9.88;;
72939;SDS011;61094;51.154;13.570;2022-12-18T00:23:22;29.08;;;11.43;;
72939;SDS011;61094;51.154;13.570;2022-12-18T00:25:24;33.63;;;10.15;;
72939;SDS011;61094;51.154;13.570;2022-12-18T00:27:26;7.00;;;3.58;;
72939;SDS011;61094;51.154;13.570;2022-12-18T00:29:28;10.77;;;5.43;;
72939;SDS011;61094;51.154;13.570;2022-12-18T00:31:30;17.02;;;4.47;;
72939;SDS011;61094;51.154;13.570;2022-12-18T00:33:33;11.77;;;4.88;;
72939;SDS011;61094;51.154;13.570;2022-12-18T00:35:36;12.88;;;4.32;;
72939;SDS011;61094;51.154;13.570;2022-12-18T00:37:37;11.38;;;3.60;;
72939;SDS011;61094;51.154;13.570;2022-12-18T00:39:41;10.88;;;6.03;;
72939;SDS011;61094;51.154;13.570;2022-12-18T00:41:42;16.35;;;5.82;;
72939;SDS011;61094;51.154;13.570;2022-12-18T00:44:02;11.05;;;5.88;;
72939;SDS011;61094;51.154;13.570;2022-12-18T00:46:04;13.73;;;6.53;;
72939;SDS011;61094;51.154;13.570;2022-12-18T00:48:06;12.55;;;4.82;;
72939;SDS011;61094;51.154;13.570;2022-12-18T00:50:08;15.48;;;3.78;;
72939;SDS011;61094;51.154;13.570;2022-12-18T00:52:10;10.60;;;5.95;;
72939;SDS011;61094;51.154;13.570;2022-12-18T00:54:12;10.82;;;4.97;;
72939;SDS011;61094;51.154;13.570;2022-12-18T00:56:15;7.53;;;3.10;;
72939;SDS011;61094;51.154;13.570;2022-12-18T00:58:18;10.80;;;5.85;;
72939;SDS011;61094;51.154;13.570;2022-12-18T01:00:20;4.82;;;2.47;;
72939;SDS011;61094;51.154;13.570;2022-12-18T01:02:22;8.20;;;4.05;;
72939;SDS011;61094;51.154;13.570;2022-12-18T01:04:24;15.00;;;2.42;;
72939;SDS011;61094;51.154;13.570;2022-12-18T01:06:26;8.35;;;2.92;;
72939;SDS011;61094;51.154;13.570;2022-12-18T01:08:28;6.55;;;2.30;;
72939;SDS011;61094;51.154;13.570;2022-12-18T01:10:29;2.50;;;1.67;;
72939;SDS011;61094;51.154;13.570;2022-12-18T01:12:32;13.82;;;5.22;;
72939;SDS011;61094;51.154;13.570;2022-12-18T01:14:34;15.35;;;7.65;;
72939;SDS011;61094;51.154;13.570;2022-12-18T01:16:37;10.82;;;4.53;;
72939;SDS011;61094;51.154;13.570;2022-12-18T01:18:39;4.22;;;2.30;;
72939;SDS011;61094;51.154;13.570;2022-12-18T01:20:42;4.85;;;2.65;;
72939;SDS011;61094;51.154;13.570;2022-12-18T01:22:43;9.10;;;3.20;;
72939;SDS011;61094;51.154;13.570;2022-12-18T01:24:45;9.40;;;4.43;;
72939;SDS011;61094;51.154;13.570;2022-12-18T01:26:47;6.60;;;3.40;;
72939;SDS011;61094;51.154;13.570;2022-12-18T01:28:51;6.75;;;3.28;;
72939;SDS011;61094;51.154;13.570;2022-12-18T01:30:54;13.73;;;5.15;;
72939;SDS011;61094;51.154;13.570;2022-12-18T01:32:56;9.27;;;4.10;;
72939;SDS011;61094;51.154;13.570;2022-12-18T01:34:57;5.40;;;2.95;;
72939;SDS011;61094;51.154;13.570;2022-12-18T01:37:01;12.93;;;5.18;;
72939;SDS011;61094;51.154;13.570;2022-12-18T01:39:05;8.68;;;5.13;;
72939;SDS011;61094;51.154;13.570;2022-12-18T01:41:07;16.63;;;5.20;;
72939;SDS011;61094;51.154;13.570;2022-12-18T01:43:10;18.83;;;5.93;;
72939;SDS011;61094;51.154;13.570;2022-12-18T01:45:26;3.85;;;2.08;;
72939;SDS011;61094;51.154;13.570;2022-12-18T01:47:31;11.07;;;3.95;;
72939;SDS011;61094;51.154;13.570;2022-12-18T01:49:35;12.52;;;4.63;;
72939;SDS011;61094;51.154;13.570;2022-12-18T01:51:37;7.40;;;3.13;;
72939;SDS011;61094;51.154;13.570;2022-12-18T01:53:40;8.88;;;4.25;;
72939;SDS011;61094;51.154;13.570;2022-12-18T01:55:44;5.97;;;3.95;;
72939;SDS011;61094;51.154;13.570;2022-12-18T01:57:48;7.70;;;3.42;;
72939;SDS011;61094;51.154;13.570;2022-12-18T02:01:58;9.07;;;4.50;;
72939;SDS011;61094;51.154;13.570;2022-12-18T02:04:14;9.82;;;4.97;;
72939;SDS011;61094;51.154;13.570;2022-12-18T02:06:23;12.80;;;4.05;;
72939;SDS011;61094;51.154;13.570;2022-12-18T02:08:33;8.80;;;3.65;;
72939;SDS011;61094;51.154;13.570;2022-12-18T02:10:43;7.10;;;4.95;;
72939;SDS011;61094;51.154;13.570;2022-12-18T02:12:52;14.73;;;3.13;;
72939;SDS011;61094;51.154;13.570;2022-12-18T02:14:58;10.57;;;4.57;;
72939;SDS011;61094;51.154;13.570;2022-12-18T02:17:13;10.40;;;3.88;;
72939;SDS011;61094;51.154;13.570;2022-12-18T02:19:37;13.73;;;4.40;;
72939;SDS011;61094;51.154;13.570;2022-12-18T02:21:48;10.20;;;5.22;;
72939;SDS011;61094;51.154;13.570;2022-12-18T02:23:57;8.88;;;4.00;;
72939;SDS011;61094;51.154;13.570;2022-12-18T02:26:19;9.27;;;3.60;;
72939;SDS011;61094;51.154;13.570;2022-12-18T02:28:30;4.10;;;1.90;;
72939;SDS011;61094;51.154;13.570;2022-12-18T02:30:38;10.75;;;4.82;;
72939;SDS011;61094;51.154;13.570;2022-12-18T02:32:42;16.20;;;4.38;;
72939;SDS011;61094;51.154;13.570;2022-12-18T02:34:48;11.60;;;5.43;;
72939;SDS011;61094;51.154;13.570;2022-12-18T02:36:57;8.82;;;3.33;;
72939;SDS011;61094;51.154;13.570;2022-12-18T02:39:02;7.95;;;3.72;;
72939;SDS011;61094;51.154;13.570;2022-12-18T02:41:06;9.77;;;4.53;;
72939;SDS011;61094;51.154;13.570;2022-12-18T02:43:13;19.38;;;3.70;;
72939;SDS011;61094;51.154;13.570;2022-12-18T02:45:16;9.60;;;4.43;;
72939;SDS011;61094;51.154;13.570;2022-12-18T02:47:20;8.70;;;4.25;;
72939;SDS011;61094;51.154;13.570;2022-12-18T02:49:30;11.32;;;4.32;;
72939;SDS011;61094;51.154;13.570;2022-12-18T02:51:38;11.10;;;3.90;;
72939;SDS011;61094;51.154;13.570;2022-12-18T02:53:50;6.13;;;3.83;;
72939;SDS011;61094;51.154;13.570;2022-12-18T02:55:59;10.52;;;3.85;;
72939;SDS011;61094;51.154;13.570;2022-12-18T02:58:09;15.77;;;3.92;;
72939;SDS011;61094;51.154;13.570;2022-12-18T03:00:19;15.00;;;3.10;;
72939;SDS011;61094;51.154;13.570;2022-12-18T03:02:25;13.68;;;4.18;;
72939;SDS011;61094;51.154;13.570;2022-12-18T03:04:34;9.43;;;4.70;;
72939;SDS011;61094;51.154;13.570;2022-12-18T03:06:45;6.35;;;2.92;;
72939;SDS011;61094;51.154;13.570;2022-12-18T03:08:52;9.15;;;3.65;;
72939;SDS011;61094;51.154;13.570;2022-12-18T03:11:02;7.38;;;2.83;;
72939;SDS011;61094;51.154;13.570;2022-12-18T03:13:08;18.40;;;7.03;;
72939;SDS011;61094;51.154;13.570;2022-12-18T03:15:16;12.27;;;3.10;;
72939;SDS011;61094;51.154;13.570;2022-12-18T03:17:26;8.45;;;5.18;;
72939;SDS011;61094;51.154;13.570;2022-12-18T03:19:31;12.18;;;5.78;;
72939;SDS011;61094;51.154;13.570;2022-12-18T03:21:37;9.82;;;4.90;;
72939;SDS011;61094;51.154;13.570;2022-12-18T03:23:44;13.07;;;6.90;;
72939;SDS011;61094;51.154;13.570;2022-12-18T03:25:49;9.10;;;3.38;;
72939;SDS011;61094;51.154;13.570;2022-12-18T03:27:56;16.05;;;5.68;;
72939;SDS011;61094;51.154;13.570;2022-12-18T03:30:01;6.53;;;3.22;;
72939;SDS011;61094;51.154;13.570;2022-12-18T03:32:11;15.07;;;5.22;;
72939;SDS011;61094;51.154;13.570;2022-12-18T03:34:17;11.23;;;3.80;;
72939;SDS011;61094;51.154;13.570;2022-12-18T03:36:25;5.40;;;4.10;;
72939;SDS011;61094;51.154;13.570;2022-12-18T03:38:27;15.07;;;7.15;;
72939;SDS011;61094;51.154;13.570;2022-12-18T03:40:30;11.20;;;6.13;;
72939;SDS011;61094;51.154;13.570;2022-12-18T03:42:38;6.78;;;3.28;;
72939;SDS011;61094;51.154;13.570;2022-12-18T03:44:47;8.75;;;3.22;;
72939;SDS011;61094;51.154;13.570;2022-12-18T03:46:58;6.72;;;3.95;;
72939;SDS011;61094;51.154;13.570;2022-12-18T03:49:08;8.40;;;3.95;;
72939;SDS011;61094;51.154;13.570;2022-12-18T03:51:16;5.30;;;2.97;;
72939;SDS011;61094;51.154;13.570;2022-12-18T03:53:27;11.30;;;3.65;;
72939;SDS011;61094;51.154;13.570;2022-12-18T03:55:35;7.40;;;3.10;;
72939;SDS011;61094;51.154;13.570;2022-12-18T03:57:39;18.23;;;4.18;;
72939;SDS011;61094;51.154;13.570;2022-12-18T03:59:43;12.82;;;5.78;;
72939;SDS011;61094;51.154;13.570;2022-12-18T04:01:52;8.43;;;4.95;;
72939;SDS011;61094;51.154;13.570;2022-12-18T04:04:01;7.78;;;2.92;;
72939;SDS011;61094;51.154;13.570;2022-12-18T04:06:09;11.75;;;4.60;;
72939;SDS011;61094;51.154;13.570;2022-12-18T04:08:14;10.57;;;3.20;;
72939;SDS011;61094;51.154;13.570;2022-12-18T04:10:23;10.27;;;3.67;;
72939;SDS011;61094;51.154;13.570;2022-12-18T04:12:26;10.18;;;4.20;;
72939;SDS011;61094;51.154;13.570;2022-12-18T04:14:30;7.85;;;4.35;;
72939;SDS011;61094;51.154;13.570;2022-12-18T04:16:36;9.55;;;4.40;;
72939;SDS011;61094;51.154;13.570;2022-12-18T04:18:39;11.70;;;4.10;;
72939;SDS011;61094;51.154;13.570;2022-12-18T04:20:42;11.02;;;4.88;;
72939;SDS011;61094;51.154;13.570;2022-12-18T04:22:46;9.75;;;5.22;;
72939;SDS011;61094;51.154;13.570;2022-12-18T04:24:48;8.40;;;3.15;;
72939;SDS011;61094;51.154;13.570;2022-12-18T04:26:59;8.43;;;3.05;;
72939;SDS011;61094;51.154;13.570;2022-12-18T04:29:06;17.20;;;4.10;;
72939;SDS011;61094;51.154;13.570;2022-12-18T04:31:08;9.90;;;3.80;;
72939;SDS011;61094;51.154;13.570;2022-12-18T04:33:11;14.85;;;4.97;;
72939;SDS011;61094;51.154;13.570;2022-12-18T04:35:21;13.43;;;5.63;;
72939;SDS011;61094;51.154;13.570;2022-12-18T04:37:23;12.23;;;4.57;;
72939;SDS011;61094;51.154;13.570;2022-12-18T04:39:27;11.60;;;4.78;;
72939;SDS011;61094;51.154;13.570;2022-12-18T04:41:33;13.73;;;5.55;;
72939;SDS011;61094;51.154;13.570;2022-12-18T04:43:37;9.75;;;3.17;;
72939;SDS011;61094;51.154;13.570;2022-12-18T04:45:38;13.30;;;3.63;;
72939;SDS011;61094;51.154;13.570;2022-12-18T04:47:40;10.10;;;4.57;;
72939;SDS011;61094;51.154;13.570;2022-12-18T04:49:42;12.77;;;3.58;;
72939;SDS011;61094;51.154;13.570;2022-12-18T04:51:44;11.65;;;4.78;;
72939;SDS011;61094;51.154;13.570;2022-12-18T04:53:46;10.90;;;2.65;;
72939;SDS011;61094;51.154;13.570;2022-12-18T04:55:49;8.82;;;4.50;;
72939;SDS011;61094;51.154;13.570;2022-12-18T04:57:51;7.20;;;3.17;;
72939;SDS011;61094;51.154;13.570;2022-12-18T04:59:53;12.23;;;3.25;;
72939;SDS011;61094;51.154;13.570;2022-12-18T05:01:54;4.88;;;3.33;;
72939;SDS011;61094;51.154;13.570;2022-12-18T05:03:56;7.18;;;2.55;;
72939;SDS011;61094;51.154;13.570;2022-12-18T05:05:58;6.35;;;2.83;;
72939;SDS011;61094;51.154;13.570;2022-12-18T05:08:00;8.55;;;3.00;;
72939;SDS011;61094;51.154;13.570;2022-12-18T05:10:06;6.80;;;2.47;;
72939;SDS011;61094;51.154;13.570;2022-12-18T05:12:10;6.22;;;2.22;;
72939;SDS011;61094;51.154;13.570;2022-12-18T05:14:12;9.10;;;3.35;;
72939;SDS011;61094;51.154;13.570;2022-12-18T05:16:13;3.97;;;1.52;;
72939;SDS011;61094;51.154;13.570;2022-12-18T05:18:15;8.30;;;3.50;;
72939;SDS011;61094;51.154;13.570;2022-12-18T05:20:17;11.35;;;4.18;;
72939;SDS011;61094;51.154;13.570;2022-12-18T05:22:20;9.07;;;4.35;;
72939;SDS011;61094;51.154;13.570;2022-12-18T05:24:21;10.55;;;3.10;;
72939;SDS011;61094;51.154;13.570;2022-12-18T05:26:23;6.07;;;3.22;;
72939;SDS011;61094;51.154;13.570;2022-12-18T05:28:27;7.88;;;2.53;;
72939;SDS011;61094;51.154;13.570;2022-12-18T05:30:29;10.95;;;2.50;;
72939;SDS011;61094;51.154;13.570;2022-12-18T05:32:31;15.18;;;3.38;;
72939;SDS011;61094;51.154;13.570;2022-12-18T05:34:33;4.97;;;2.47;;
72939;SDS011;61094;51.154;13.570;2022-12-18T05:36:35;5.78;;;2.22;;
72939;SDS011;61094;51.154;13.570;2022-12-18T05:38:37;7.72;;;2.35;;
72939;SDS011;61094;51.154;13.570;2022-12-18T05:40:41;14.63;;;6.82;;
72939;SDS011;61094;51.154;13.570;2022-12-18T05:42:43;18.40;;;6.05;;
72939;SDS011;61094;51.154;13.570;2022-12-18T05:44:46;12.85;;;6.47;;
72939;SDS011;61094;51.154;13.570;2022-12-18T05:46:48;24.73;;;10.05;;
72939;SDS011;61094;51.154;13.570;2022-12-18T05:48:50;18.45;;;7.38;;
72939;SDS011;61094;51.154;13.570;2022-12-18T05:50:52;8.55;;;4.15;;
72939;SDS011;61094;51.154;13.570;2022-12-18T05:52:54;8.55;;;3.17;;
72939;SDS011;61094;51.154;13.570;2022-12-18T05:54:56;16.15;;;3.30;;
72939;SDS011;61094;51.154;13.570;2022-12-18T05:56:59;11.38;;;3.28;;
72939;SDS011;61094;51.154;13.570;2022-12-18T05:59:00;10.98;;;3.22;;
72939;SDS011;61094;51.154;13.570;2022-12-18T06:01:07;10.07;;;2.38;;
72939;SDS011;61094;51.154;13.570;2022-12-18T06:03:10;6.97;;;2.35;;
72939;SDS011;61094;51.154;13.570;2022-12-18T06:05:13;3.38;;;1.67;;
72939;SDS011;61094;51.154;13.570;2022-12-18T06:07:15;7.25;;;2.70;;
72939;SDS011;61094;51.154;13.570;2022-12-18T06:09:17;7.00;;;3.28;;
72939;SDS011;61094;51.154;13.570;2022-12-18T06:11:19;10.77;;;3.88;;
72939;SDS011;61094;51.154;13.570;2022-12-18T06:13:22;4.50;;;3.10;;
72939;SDS011;61094;51.154;13.570;2022-12-18T06:15:24;6.65;;;2.88;;
72939;SDS011;61094;51.154;13.570;2022-12-18T06:17:28;5.53;;;2.72;;
72939;SDS011;61094;51.154;13.570;2022-12-18T06:19:30;8.45;;;3.58;;
72939;SDS011;61094;51.154;13.570;2022-12-18T06:21:32;13.27;;;6.43;;
72939;SDS011;61094;51.154;13.570;2022-12-18T06:23:34;15.93;;;3.85;;
72939;SDS011;61094;51.154;13.570;2022-12-18T06:25:37;7.25;;;2.83;;
72939;SDS011;61094;51.154;13.570;2022-12-18T06:27:39;8.20;;;3.63;;
72939;SDS011;61094;51.154;13.570;2022-12-18T06:29:41;5.97;;;2.70;;
72939;SDS011;61094;51.154;13.570;2022-12-18T06:31:43;15.32;;;3.40;;
72939;SDS011;61094;51.154;13.570;2022-12-18T06:33:46;9.02;;;3.38;;
72939;SDS011;61094;51.154;13.570;2022-12-18T06:35:48;4.43;;;2.75;;
72939;SDS011;61094;51.154;13.570;2022-12-18T06:37:49;3.10;;;1.35;;
72939;SDS011;61094;51.154;13.570;2022-12-18T06:39:51;13.23;;;3.78;;
72939;SDS011;61094;51.154;13.570;2022-12-18T06:41:53;4.50;;;1.33;;
72939;SDS011;61094;51.154;13.570;2022-12-18T06:43:55;6.93;;;2.10;;
72939;SDS011;61094;51.154;13.570;2022-12-18T06:45:58;6.05;;;2.97;;
72939;SDS011;61094;51.154;13.570;2022-12-18T06:48:01;8.05;;;3.60;;
72939;SDS011;61094;51.154;13.570;2022-12-18T06:50:04;8.52;;;3.28;;
72939;SDS011;61094;51.154;13.570;2022-12-18T06:52:07;3.95;;;2.28;;
72939;SDS011;61094;51.154;13.570;2022-12-18T06:54:08;6.82;;;3.10;;
72939;SDS011;61094;51.154;13.570;2022-12-18T06:56:10;5.88;;;2.72;;
72939;SDS011;61094;51.154;13.570;2022-12-18T06:58:12;8.77;;;3.90;;
72939;SDS011;61094;51.154;13.570;2022-12-18T07:00:14;8.25;;;3.13;;
72939;SDS011;61094;51.154;13.570;2022-12-18T07:02:16;33.45;;;15.40;;
72939;SDS011;61094;51.154;13.570;2022-12-18T07:04:17;58.53;;;27.35;;
72939;SDS011;61094;51.154;13.570;2022-12-18T07:06:21;11.77;;;5.18;;
72939;SDS011;61094;51.154;13.570;2022-12-18T07:08:24;6.97;;;3.50;;
72939;SDS011;61094;51.154;13.570;2022-12-18T07:10:26;9.05;;;3.33;;
72939;SDS011;61094;51.154;13.570;2022-12-18T07:12:28;2.67;;;1.70;;
72939;SDS011;61094;51.154;13.570;2022-12-18T07:14:30;6.20;;;3.10;;
72939;SDS011;61094;51.154;13.570;2022-12-18T07:16:31;6.80;;;3.03;;
72939;SDS011;61094;51.154;13.570;2022-12-18T07:18:33;9.95;;;2.45;;
72939;SDS011;61094;51.154;13.570;2022-12-18T07:20:35;10.65;;;3.63;;
72939;SDS011;61094;51.154;13.570;2022-12-18T07:22:39;11.30;;;2.83;;
72939;SDS011;61094;51.154;13.570;2022-12-18T07:24:40;4.13;;;1.90;;
72939;SDS011;61094;51.154;13.570;2022-12-18T07:26:42;5.20;;;2.20;;
72939;SDS011;61094;51.154;13.570;2022-12-18T07:28:47;8.80;;;2.83;;
72939;SDS011;61094;51.154;13.570;2022-12-18T07:30:49;13.13;;;3.65;;
72939;SDS011;61094;51.154;13.570;2022-12-18T07:32:51;13.05;;;4.68;;
72939;SDS011;61094;51.154;13.570;2022-12-18T07:34:53;18.70;;;3.63;;
72939;SDS011;61094;51.154;13.570;2022-12-18T07:36:55;3.38;;;1.95;;
72939;SDS011;61094;51.154;13.570;2022-12-18T07:38:58;9.77;;;3.22;;
72939;SDS011;61094;51.154;13.570;2022-12-18T07:41:00;6.70;;;2.35;;
72939;SDS011;61094;51.154;13.570;2022-12-18T07:43:02;9.18;;;3.28;;
72939;SDS011;61094;51.154;13.570;2022-12-18T07:45:04;4.03;;;1.95;;
72939;SDS011;61094;51.154;13.570;2022-12-18T07:47:07;15.82;;;6.10;;
72939;SDS011;61094;51.154;13.570;2022-12-18T07:49:08;64.70;;;21.70;;
72939;SDS011;61094;51.154;13.570;2022-12-18T07:51:10;47.30;;;16.77;;
72939;SDS011;61094;51.154;13.570;2022-12-18T07:53:12;17.15;;;7.80;;
72939;SDS011;61094;51.154;13.570;2022-12-18T07:55:16;19.10;;;7.45;;
72939;SDS011;61094;51.154;13.570;2022-12-18T07:57:17;11.50;;;3.92;;
72939;SDS011;61094;51.154;13.570;2022-12-18T07:59:19;7.75;;;3.33;;
72939;SDS011;61094;51.154;13.570;2022-12-18T08:01:21;7.95;;;4.88;;
72939;SDS011;61094;51.154;13.570;2022-12-18T08:03:23;10.27;;;4.28;;
72939;SDS011;61094;51.154;13.570;2022-12-18T08:05:25;11.65;;;4.40;;
72939;SDS011;61094;51.154;13.570;2022-12-18T08:07:27;6.00;;;3.00;;
72939;SDS011;61094;51.154;13.570;2022-12-18T08:09:28;10.45;;;4.03;;
72939;SDS011;61094;51.154;13.570;2022-12-18T08:11:31;6.18;;;2.95;;
72939;SDS011;61094;51.154;13.570;2022-12-18T08:13:33;12.65;;;5.28;;
72939;SDS011;61094;51.154;13.570;2022-12-18T08:15:35;11.57;;;5.07;;
72939;SDS011;61094;51.154;13.570;2022-12-18T08:17:37;19.85;;;6.43;;
72939;SDS011;61094;51.154;13.570;2022-12-18T08:19:38;12.32;;;5.35;;
72939;SDS011;61094;51.154;13.570;2022-12-18T08:21:40;11.60;;;5.13;;
72939;SDS011;61094;51.154;13.570;2022-12-18T08:23:42;11.88;;;5.95;;
72939;SDS011;61094;51.154;13.570;2022-12-18T08:25:44;11.18;;;4.53;;
72939;SDS011;61094;51.154;13.570;2022-12-18T08:27:47;12.88;;;5.45;;
72939;SDS011;61094;51.154;13.570;2022-12-18T08:29:49;11.18;;;4.53;;
72939;SDS011;61094;51.154;13.570;2022-12-18T08:31:51;19.30;;;5.80;;
72939;SDS011;61094;51.154;13.570;2022-12-18T08:33:53;15.93;;;5.93;;
72939;SDS011;61094;51.154;13.570;2022-12-18T08:35:55;15.02;;;6.05;;
72939;SDS011;61094;51.154;13.570;2022-12-18T08:37:57;14.80;;;5.13;;
72939;SDS011;61094;51.154;13.570;2022-12-18T08:39:58;11.20;;;6.10;;
72939;SDS011;61094;51.154;13.570;2022-12-18T08:42:00;16.25;;;6.32;;
72939;SDS011;61094;51.154;13.570;2022-12-18T08:44:21;26.30;;;10.32;;
72939;SDS011;61094;51.154;13.570;2022-12-18T08:46:39;44.72;;;17.63;;
72939;SDS011;61094;51.154;13.570;2022-12-18T08:48:46;73.78;;;27.15;;
72939;SDS011;61094;51.154;13.570;2022-12-18T08:50:53;46.83;;;17.45;;
72939;SDS011;61094;51.154;13.570;2022-12-18T08:52:55;36.55;;;12.93;;
72939;SDS011;61094;51.154;13.570;2022-12-18T08:54:57;39.70;;;13.82;;
72939;SDS011;61094;51.154;13.570;2022-12-18T08:56:59;30.92;;;11.50;;
72939;SDS011;61094;51.154;13.570;2022-12-18T08:59:01;25.70;;;11.48;;
72939;SDS011;61094;51.154;13.570;2022-12-18T09:01:06;29.85;;;12.10;;
72939;SDS011;61094;51.154;13.570;2022-12-18T09:03:10;30.88;;;12.75;;
72939;SDS011;61094;51.154;13.570;2022-12-18T09:05:13;30.65;;;10.88;;
72939;SDS011;61094;51.154;13.570;2022-12-18T09:07:15;24.17;;;10.77;;
72939;SDS011;61094;51.154;13.570;2022-12-18T09:09:17;30.58;;;11.65;;
72939;SDS011;61094;51.154;13.570;2022-12-18T09:11:19;25.38;;;11.93;;
72939;SDS011;61094;51.154;13.570;2022-12-18T09:13:22;26.70;;;11.20;;
72939;SDS011;61094;51.154;13.570;2022-12-18T09:15:24;25.90;;;11.05;;
72939;SDS011;61094;51.154;13.570;2022-12-18T09:17:27;30.23;;;11.80;;
72939;SDS011;61094;51.154;13.570;2022-12-18T09:19:29;31.45;;;11.95;;
72939;SDS011;61094;51.154;13.570;2022-12-18T09:21:32;28.60;;;11.98;;
72939;SDS011;61094;51.154;13.570;2022-12-18T09:23:37;25.02;;;11.32;;
72939;SDS011;61094;51.154;13.570;2022-12-18T09:25:39;23.33;;;10.35;;
72939;SDS011;61094;51.154;13.570;2022-12-18T09:27:41;18.73;;;8.82;;
72939;SDS011;61094;51.154;13.570;2022-12-18T09:29:43;23.10;;;9.18;;
72939;SDS011;61094;51.154;13.570;2022-12-18T09:31:44;19.38;;;7.50;;
72939;SDS011;61094;51.154;13.570;2022-12-18T09:33:47;23.23;;;7.68;;
72939;SDS011;61094;51.154;13.570;2022-12-18T09:35:49;19.63;;;8.52;;
72939;SDS011;61094;51.154;13.570;2022-12-18T09:37:51;20.25;;;8.23;;
72939;SDS011;61094;51.154;13.570;2022-12-18T09:39:54;20.15;;;6.72;;
72939;SDS011;61094;51.154;13.570;2022-12-18T09:41:57;20.80;;;7.55;;
72939;SDS011;61094;51.154;13.570;2022-12-18T09:44:00;24.85;;;8.82;;
72939;SDS011;61094;51.154;13.570;2022-12-18T09:46:07;17.73;;;7.85;;
72939;SDS011;61094;51.154;13.570;2022-12-18T09:48:14;16.25;;;6.68;;
72939;SDS011;61094;51.154;13.570;2022-12-18T09:50:23;16.90;;;6.18;;
72939;SDS011;61094;51.154;13.570;2022-12-18T09:52:29;16.65;;;6.63;;
72939;SDS011;61094;51.154;13.570;2022-12-18T09:54:35;20.58;;;8.23;;
72939;SDS011;61094;51.154;13.570;2022-12-18T09:56:41;18.52;;;7.93;;
72939;SDS011;61094;51.154;13.570;2022-12-18T09:58:45;22.73;;;8.70;;
72939;SDS011;61094;51.154;13.570;2022-12-18T10:00:53;29.70;;;12.43;;
72939;SDS011;61094;51.154;13.570;2022-12-18T10:02:56;25.08;;;10.00;;
72939;SDS011;61094;51.154;13.570;2022-12-18T10:05:05;22.83;;;7.80;;
72939;SDS011;61094;51.154;13.570;2022-12-18T10:07:12;22.40;;;8.65;;
72939;SDS011;61094;51.154;13.570;2022-12-18T10:09:20;18.63;;;8.65;;
72939;SDS011;61094;51.154;13.570;2022-12-18T10:11:32;18.35;;;7.18;;
72939;SDS011;61094;51.154;13.570;2022-12-18T10:13:42;21.48;;;9.15;;
72939;SDS011;61094;51.154;13.570;2022-12-18T10:15:51;21.05;;;8.20;;
72939;SDS011;61094;51.154;13.570;2022-12-18T10:18:04;21.10;;;9.02;;
72939;SDS011;61094;51.154;13.570;2022-12-18T10:20:18;21.67;;;8.73;;
72939;SDS011;61094;51.154;13.570;2022-12-18T10:22:36;23.70;;;8.82;;
72939;SDS011;61094;51.154;13.570;2022-12-18T10:26:49;27.33;;;9.82;;
72939;SDS011;61094;51.154;13.570;2022-12-18T10:28:54;28.60;;;10.65;;
72939;SDS011;61094;51.154;13.570;2022-12-18T10:30:57;23.83;;;10.18;;
72939;SDS011;61094;51.154;13.570;2022-12-18T10:33:00;24.48;;;9.77;;
72939;SDS011;61094;51.154;13.570;2022-12-18T10:35:02;31.38;;;13.02;;
72939;SDS011;61094;51.154;13.570;2022-12-18T10:37:06;24.60;;;10.10;;
72939;SDS011;61094;51.154;13.570;2022-12-18T10:39:18;32.65;;;13.60;;
72939;SDS011;61094;51.154;13.570;2022-12-18T10:41:25;25.00;;;9.25;;
72939;SDS011;61094;51.154;13.570;2022-12-18T10:43:29;25.45;;;10.15;;
72939;SDS011;61094;51.154;13.570;2022-12-18T10:45:32;22.13;;;8.82;;
72939;SDS011;61094;51.154;13.570;2022-12-18T10:47:35;23.40;;;9.98;;
72939;SDS011;61094;51.154;13.570;2022-12-18T10:49:37;28.13;;;11.65;;
72939;SDS011;61094;51.154;13.570;2022-12-18T10:51:48;30.13;;;11.02;;
72939;SDS011;61094;51.154;13.570;2022-12-18T10:53:54;26.48;;;9.68;;
72939;SDS011;61094;51.154;13.570;2022-12-18T10:56:01;29.98;;;11.93;;
72939;SDS011;61094;51.154;13.570;2022-12-18T10:58:20;27.90;;;11.55;;
72939;SDS011;61094;51.154;13.570;2022-12-18T11:00:25;22.25;;;9.65;;
72939;SDS011;61094;51.154;13.570;2022-12-18T11:02:33;21.95;;;9.50;;
72939;SDS011;61094;51.154;13.570;2022-12-18T11:04:36;23.13;;;9.35;;
72939;SDS011;61094;51.154;13.570;2022-12-18T11:06:52;24.42;;;10.25;;
72939;SDS011;61094;51.154;13.570;2022-12-18T11:08:57;22.90;;;10.40;;
72939;SDS011;61094;51.154;13.570;2022-12-18T11:11:01;26.55;;;11.07;;
72939;SDS011;61094;51.154;13.570;2022-12-18T11:13:09;27.05;;;9.93;;
72939;SDS011;61094;51.154;13.570;2022-12-18T11:15:15;30.40;;;11.27;;
72939;SDS011;61094;51.154;13.570;2022-12-18T11:17:21;27.75;;;10.88;;
72939;SDS011;61094;51.154;13.570;2022-12-18T11:19:31;24.05;;;10.75;;
72939;SDS011;61094;51.154;13.570;2022-12-18T11:21:38;27.52;;;10.93;;
72939;SDS011;61094;51.154;13.570;2022-12-18T11:23:44;21.23;;;7.82;;
72939;SDS011;61094;51.154;13.570;2022-12-18T11:25:50;21.10;;;8.35;;
72939;SDS011;61094;51.154;13.570;2022-12-18T11:27:56;22.80;;;8.20;;
72939;SDS011;61094;51.154;13.570;2022-12-18T11:30:07;22.33;;;9.02;;
72939;SDS011;61094;51.154;13.570;2022-12-18T11:34:34;19.02;;;7.07;;
72939;SDS011;61094;51.154;13.570;2022-12-18T11:36:39;19.20;;;6.57;;
72939;SDS011;61094;51.154;13.570;2022-12-18T11:38:44;23.67;;;7.43;;
72939;SDS011;61094;51.154;13.570;2022-12-18T11:40:50;19.48;;;7.45;;
72939;SDS011;61094;51.154;13.570;2022-12-18T11:42:58;21.17;;;7.35;;
72939;SDS011;61094;51.154;13.570;2022-12-18T11:45:20;19.10;;;7.35;;
72939;SDS011;61094;51.154;13.570;2022-12-18T11:47:28;23.10;;;7.45;;
72939;SDS011;61094;51.154;13.570;2022-12-18T11:51:44;20.25;;;7.07;;
72939;SDS011;61094;51.154;13.570;2022-12-18T11:53:51;21.95;;;7.75;;
72939;SDS011;61094;51.154;13.570;2022-12-18T11:56:01;24.52;;;8.18;;
72939;SDS011;61094;51.154;13.570;2022-12-18T11:58:15;20.95;;;7.78;;
72939;SDS011;61094;51.154;13.570;2022-12-18T12:00:24;18.20;;;8.15;;
72939;SDS011;61094;51.154;13.570;2022-12-18T12:02:31;18.85;;;7.07;;
72939;SDS011;61094;51.154;13.570;2022-12-18T12:07:17;23.08;;;8.05;;
72939;SDS011;61094;51.154;13.570;2022-12-18T12:11:36;23.35;;;7.38;;
72939;SDS011;61094;51.154;13.570;2022-12-18T12:13:49;22.63;;;7.60;;
72939;SDS011;61094;51.154;13.570;2022-12-18T12:16:03;18.30;;;7.43;;
72939;SDS011;61094;51.154;13.570;2022-12-18T12:18:18;27.00;;;8.73;;
72939;SDS011;61094;51.154;13.570;2022-12-18T12:20:32;21.55;;;6.88;;
72939;SDS011;61094;51.154;13.570;2022-12-18T12:22:44;22.20;;;8.13;;
72939;SDS011;61094;51.154;13.570;2022-12-18T12:24:55;20.10;;;7.50;;